createdAt,value
2023-05-22T00:01:05.141Z,100.00
2023-05-22T00:03:37.154Z,100.00
2023-05-22T00:06:10.471Z,100.00
2023-05-22T00:08:40.531Z,100.00
2023-05-22T00:11:10.202Z,100.00
2023-05-22T00:13:39.727Z,100.00
2023-05-22T00:16:09.639Z,100.00
2023-05-22T00:18:42.578Z,100.00
2023-05-22T00:21:12.194Z,100.00
2023-05-22T00:23:41.833Z,100.00
2023-05-22T00:26:11.491Z,100.00
2023-05-22T00:28:41.088Z,100.00
2023-05-22T00:31:11.285Z,100.00
2023-05-22T00:33:42.278Z,100.00
2023-05-22T00:36:11.939Z,100.00
2023-05-22T00:38:41.603Z,100.00
2023-05-22T00:41:11.384Z,100.00
2023-05-22T00:43:41.158Z,100.00
2023-05-22T00:46:12.853Z,100.00
2023-05-22T00:48:43.890Z,100.00
2023-05-22T00:51:14.615Z,100.00
2023-05-22T00:53:44.334Z,100.00
2023-05-22T00:56:15.459Z,100.00
2023-05-22T00:58:45.757Z,100.00
2023-05-22T01:01:16.305Z,100.00
2023-05-22T01:03:50.100Z,100.00
2023-05-22T01:06:21.736Z,100.00
2023-05-22T01:08:51.296Z,96.67
2023-05-22T01:11:26.998Z,99.00
2023-05-22T01:14:03.025Z,100.00
2023-05-22T01:16:40.674Z,100.00
2023-05-22T01:19:31.328Z,97.68
2023-05-22T01:22:09.514Z,100.00
2023-05-22T01:25:02.191Z,100.00
2023-05-22T01:27:51.066Z,100.00
2023-05-22T01:30:50.605Z,100.00
2023-05-22T01:33:21.932Z,100.00
2023-05-22T01:35:54.539Z,100.00
2023-05-22T01:38:24.438Z,100.00
2023-05-22T01:40:56.452Z,100.00
2023-05-22T01:43:26.599Z,100.00
2023-05-22T01:45:57.589Z,100.00
2023-05-22T01:48:27.187Z,100.00
2023-05-22T01:50:58.610Z,100.00
2023-05-22T01:53:35.402Z,100.00
2023-05-22T01:56:09.352Z,100.00
2023-05-22T01:58:45.541Z,100.00
2023-05-22T02:01:19.080Z,100.00
2023-05-22T02:04:08.039Z,100.00
2023-05-22T02:06:59.654Z,100.00
2023-05-22T02:09:32.312Z,100.00
2023-05-22T02:12:03.624Z,100.00
2023-05-22T02:14:34.342Z,100.00
2023-05-22T02:17:08.006Z,100.00
2023-05-22T02:19:38.000Z,100.00
2023-05-22T02:22:10.168Z,100.00
2023-05-22T02:24:39.788Z,100.00
2023-05-22T02:27:09.759Z,100.00
2023-05-22T02:29:39.549Z,100.00
2023-05-22T02:32:11.204Z,100.00
2023-05-22T02:34:40.763Z,100.00
2023-05-22T02:37:10.316Z,100.00
2023-05-22T02:39:40.242Z,100.00
2023-05-22T02:42:10.376Z,100.00
2023-05-22T02:44:40.888Z,100.00
2023-05-22T02:47:11.905Z,100.00
2023-05-22T02:49:41.832Z,100.00
2023-05-22T02:52:11.777Z,100.00
2023-05-22T02:54:41.376Z,100.00
2023-05-22T02:57:10.914Z,100.00
2023-05-22T02:59:40.496Z,100.00
2023-05-22T03:02:12.542Z,100.00
2023-05-22T03:04:42.379Z,100.00
2023-05-22T03:07:12.557Z,100.00
2023-05-22T03:09:42.351Z,100.00
2023-05-22T03:12:12.564Z,100.00
2023-05-22T03:14:42.503Z,100.00
2023-05-22T03:17:13.700Z,100.00
2023-05-22T03:19:43.790Z,100.00
2023-05-22T03:22:13.758Z,100.00
2023-05-22T03:24:45.400Z,100.00
2023-05-22T03:27:17.480Z,100.00
2023-05-22T03:29:49.585Z,100.00
2023-05-22T03:32:22.209Z,100.00
2023-05-22T03:34:53.193Z,100.00
2023-05-22T03:37:23.529Z,100.00
2023-05-22T03:39:53.461Z,100.00
2023-05-22T03:42:33.089Z,100.00
2023-05-22T03:45:04.424Z,100.00
2023-05-22T03:47:36.457Z,100.00
2023-05-22T03:50:06.791Z,100.00
2023-05-22T03:52:36.823Z,100.00
2023-05-22T03:55:08.293Z,100.00
2023-05-22T03:57:38.004Z,100.00
2023-05-22T04:00:13.900Z,100.00
2023-05-22T04:02:47.533Z,100.00
2023-05-22T04:05:17.875Z,100.00
2023-05-22T04:07:48.398Z,100.00
2023-05-22T04:10:24.630Z,100.00
2023-05-22T04:12:54.627Z,100.00
2023-05-22T04:15:24.378Z,100.00
2023-05-22T04:17:59.104Z,100.00
2023-05-22T04:20:31.018Z,100.00
2023-05-22T04:23:02.967Z,100.00
2023-05-22T04:25:34.737Z,100.00
2023-05-22T04:28:06.719Z,100.00
2023-05-22T04:30:40.628Z,100.00
2023-05-22T04:33:14.407Z,100.00
2023-05-22T04:35:45.221Z,100.00
2023-05-22T04:38:15.384Z,99.55
2023-05-22T04:40:45.820Z,97.73
2023-05-22T04:43:27.055Z,100.00
2023-05-22T04:45:58.423Z,100.00
2023-05-22T04:48:29.622Z,100.00
2023-05-22T04:51:00.366Z,100.00
2023-05-22T04:53:33.645Z,100.00
2023-05-22T04:56:34.789Z,100.00
2023-05-22T04:59:26.864Z,100.00
2023-05-22T05:02:14.892Z,100.00
2023-05-22T05:04:47.342Z,100.00
2023-05-22T05:07:22.850Z,100.00
2023-05-22T05:09:53.503Z,100.00
2023-05-22T05:12:24.057Z,100.00
2023-05-22T05:14:54.919Z,100.00
2023-05-22T05:17:24.664Z,97.87
2023-05-22T05:19:57.021Z,93.25
2023-05-22T05:22:28.910Z,100.00
2023-05-22T05:24:59.687Z,100.00
2023-05-22T05:27:31.525Z,100.00
2023-05-22T05:30:03.595Z,100.00
2023-05-22T05:32:51.653Z,100.00
2023-05-22T05:35:32.669Z,99.52
2023-05-22T05:38:11.155Z,99.29
2023-05-22T05:40:44.579Z,100.00
2023-05-22T05:43:16.418Z,100.00
2023-05-22T05:45:48.381Z,100.00
2023-05-22T05:48:22.164Z,100.00
2023-05-22T05:50:55.151Z,100.00
2023-05-22T05:53:26.038Z,100.00
2023-05-22T05:56:01.117Z,93.70
2023-05-22T05:58:33.916Z,90.75
2023-05-22T06:01:24.808Z,77.61
2023-05-22T06:03:56.385Z,66.65
2023-05-22T06:06:36.681Z,58.05
2023-05-22T06:09:12.710Z,47.96
2023-05-22T06:12:02.433Z,60.94
2023-05-22T06:14:32.485Z,79.80
2023-05-22T06:17:02.867Z,88.95
2023-05-22T06:19:33.610Z,100.00
2023-05-22T06:22:05.694Z,96.14
2023-05-22T06:24:35.879Z,99.82
2023-05-22T06:27:12.662Z,100.00
2023-05-22T06:30:54.390Z,95.21
2023-05-22T06:34:05.311Z,80.26
2023-05-22T06:36:35.931Z,67.22
2023-05-22T06:39:09.071Z,71.04
2023-05-22T06:42:16.345Z,65.29
2023-05-22T06:45:13.292Z,57.05
2023-05-22T06:47:54.956Z,52.73
2023-05-22T06:50:39.377Z,50.55
2023-05-22T06:54:12.935Z,49.26
2023-05-22T06:56:58.287Z,47.63
2023-05-22T06:59:30.425Z,45.25
2023-05-22T07:02:10.182Z,46.39
2023-05-22T07:04:59.935Z,45.90
2023-05-22T07:07:42.867Z,45.66
2023-05-22T07:10:12.818Z,43.58
2023-05-22T07:12:45.072Z,42.43
2023-05-22T07:15:15.393Z,42.74
2023-05-22T07:17:51.107Z,42.88
2023-05-22T07:20:20.964Z,42.31
2023-05-22T07:23:10.860Z,42.72
2023-05-22T07:25:41.565Z,41.69
2023-05-22T07:28:13.263Z,42.64
2023-05-22T07:30:53.768Z,42.45
2023-05-22T07:33:24.230Z,41.42
2023-05-22T07:40:19.211Z,40.36
2023-05-22T07:42:49.865Z,40.45
2023-05-22T07:45:21.369Z,40.70
2023-05-22T07:47:52.251Z,40.62
2023-05-22T07:50:27.241Z,40.10
2023-05-22T07:52:56.979Z,40.32
2023-05-22T07:55:27.644Z,39.38
2023-05-22T07:57:57.726Z,40.65
2023-05-22T08:00:37.430Z,40.51
2023-05-22T08:03:07.105Z,41.39
2023-05-22T08:05:38.689Z,41.08
2023-05-22T08:08:10.623Z,41.18
2023-05-22T08:13:13.363Z,40.54
2023-05-22T08:15:44.502Z,41.18
2023-05-22T08:18:14.317Z,41.56
2023-05-22T08:21:24.285Z,41.17
2023-05-22T08:23:55.667Z,39.30
2023-05-22T08:26:29.942Z,38.52
2023-05-22T08:29:00.614Z,38.22
2023-05-22T08:31:34.629Z,38.86
2023-05-22T08:34:05.903Z,39.74
2023-05-22T08:36:35.982Z,39.80
2023-05-22T08:39:07.799Z,41.34
2023-05-22T08:41:38.352Z,40.09
2023-05-22T08:44:08.458Z,39.40
2023-05-22T08:46:41.917Z,40.38
2023-05-22T08:49:12.560Z,39.01
2023-05-22T08:51:44.163Z,38.97
2023-05-22T08:54:16.416Z,39.18
2023-05-22T08:56:56.600Z,37.95
2023-05-22T08:59:28.232Z,39.20
2023-05-22T09:02:00.806Z,38.50
2023-05-22T09:04:36.114Z,38.31
2023-05-22T09:07:09.760Z,39.18
2023-05-22T09:09:42.583Z,39.83
2023-05-22T09:12:51.450Z,39.02
2023-05-22T09:15:31.153Z,38.80
2023-05-22T09:18:06.452Z,38.52
2023-05-22T09:20:43.541Z,37.95
2023-05-22T09:23:19.139Z,38.01
2023-05-22T09:25:56.831Z,39.38
2023-05-22T09:28:30.183Z,38.15
2023-05-22T09:31:04.924Z,38.03
2023-05-22T09:33:40.466Z,38.35
2023-05-22T09:36:13.854Z,38.81
2023-05-22T09:38:47.614Z,39.74
2023-05-22T09:41:25.411Z,39.32
2023-05-22T09:44:01.669Z,39.25
2023-05-22T09:46:42.742Z,38.99
2023-05-22T09:49:17.913Z,39.38
2023-05-22T09:52:01.426Z,40.28
2023-05-22T09:54:39.814Z,40.41
2023-05-22T09:57:16.966Z,40.10
2023-05-22T09:59:56.350Z,39.86
2023-05-22T10:02:30.072Z,39.39
2023-05-22T10:05:12.375Z,38.34
2023-05-22T10:07:51.330Z,37.45
2023-05-22T10:10:27.485Z,39.15
2023-05-22T10:13:04.171Z,39.28
2023-05-22T10:15:37.857Z,37.63
2023-05-22T10:18:13.071Z,38.98
2023-05-22T10:20:55.339Z,38.19
2023-05-22T10:23:29.386Z,39.07
2023-05-22T10:26:00.713Z,41.02
2023-05-22T10:28:40.756Z,40.20
2023-05-22T10:31:26.208Z,41.43
2023-05-22T10:34:32.368Z,43.08
2023-05-22T10:37:20.844Z,42.24
2023-05-22T10:40:05.040Z,42.57
2023-05-22T10:42:48.962Z,38.55
2023-05-22T10:45:28.645Z,36.69
2023-05-22T10:48:08.457Z,38.23
2023-05-22T10:50:42.990Z,36.49
2023-05-22T10:53:32.637Z,35.74
2023-05-22T10:56:14.005Z,34.82
2023-05-22T10:59:10.719Z,35.02
2023-05-22T11:02:02.040Z,37.57
2023-05-22T11:04:32.846Z,38.42
2023-05-22T11:07:09.211Z,37.92
2023-05-22T11:09:46.433Z,41.08
2023-05-22T11:12:21.856Z,39.35
2023-05-22T11:14:56.952Z,40.63
2023-05-22T11:17:31.097Z,42.10
2023-05-22T11:20:07.139Z,41.23
2023-05-22T11:22:40.976Z,41.81
2023-05-22T11:25:18.232Z,45.90
2023-05-22T11:27:50.045Z,50.41
2023-05-22T11:30:29.541Z,53.33
2023-05-22T11:33:03.093Z,57.36
2023-05-22T11:35:37.676Z,59.69
2023-05-22T11:38:13.122Z,63.12
2023-05-22T11:41:04.627Z,60.64
2023-05-22T11:43:42.381Z,57.51
2023-05-22T11:46:14.494Z,66.91
2023-05-22T11:48:43.929Z,76.97
2023-05-22T11:51:13.756Z,76.02
2023-05-22T11:53:42.792Z,70.90
2023-05-22T11:56:13.152Z,67.11
2023-05-22T11:58:41.980Z,72.26
2023-05-22T12:01:10.802Z,71.42
2023-05-22T12:03:39.824Z,69.55
2023-05-22T12:06:09.755Z,72.10
2023-05-22T12:08:38.815Z,67.48
2023-05-22T12:11:07.889Z,68.68
2023-05-22T12:13:38.285Z,67.35
2023-05-22T12:16:20.182Z,63.34
2023-05-22T12:18:49.191Z,62.53
2023-05-22T12:21:20.173Z,63.43
2023-05-22T12:23:50.285Z,68.26
2023-05-22T12:26:19.307Z,68.26
2023-05-22T12:28:49.570Z,70.75
2023-05-22T12:31:22.959Z,69.12
2023-05-22T12:33:55.021Z,67.85
2023-05-22T12:36:33.354Z,67.39
2023-05-22T12:39:02.502Z,68.80
2023-05-22T12:41:31.434Z,68.76
2023-05-22T12:44:02.243Z,68.75
2023-05-22T12:46:32.002Z,64.49
2023-05-22T12:49:02.144Z,60.98
2023-05-22T12:51:33.265Z,62.85
2023-05-22T12:54:03.217Z,58.79
2023-05-22T12:56:32.856Z,60.48
2023-05-22T12:59:04.057Z,57.09
2023-05-22T13:01:33.318Z,54.78
2023-05-22T13:04:02.405Z,56.27
2023-05-22T13:06:31.818Z,54.52
2023-05-22T13:09:00.757Z,57.78
2023-05-22T13:11:29.747Z,53.59
2023-05-22T13:13:58.676Z,54.24
2023-05-22T13:16:29.037Z,55.42
2023-05-22T13:18:57.999Z,54.28
2023-05-22T13:21:27.101Z,59.12
2023-05-22T13:23:56.644Z,57.29
2023-05-22T13:26:26.476Z,62.24
2023-05-22T13:28:55.367Z,70.14
2023-05-22T13:31:24.297Z,78.59
2023-05-22T13:33:54.630Z,84.04
2023-05-22T13:36:23.565Z,93.15
2023-05-22T13:38:52.465Z,100.00
2023-05-22T13:41:21.339Z,100.00
2023-05-22T13:43:50.238Z,100.00
2023-05-22T13:46:21.113Z,100.00
2023-05-22T13:48:50.132Z,100.00
2023-05-22T13:51:20.488Z,100.00
2023-05-22T13:53:49.496Z,100.00
2023-05-22T13:56:18.417Z,100.00
2023-05-22T13:58:47.290Z,100.00
2023-05-22T14:01:16.255Z,100.00
2023-05-22T14:03:45.528Z,100.00
2023-05-22T14:06:14.438Z,100.00
2023-05-22T14:08:44.643Z,100.00
2023-05-22T14:11:13.472Z,100.00
2023-05-22T14:13:42.415Z,100.00
2023-05-22T14:16:11.350Z,100.00
2023-05-22T14:18:40.258Z,100.00
2023-05-22T14:21:09.197Z,100.00
2023-05-22T14:23:38.086Z,100.00
2023-05-22T14:26:08.364Z,100.00
2023-05-22T14:28:37.333Z,100.00
2023-05-22T14:31:06.217Z,100.00
2023-05-22T14:33:35.845Z,100.00
2023-05-22T14:36:05.010Z,100.00
2023-05-22T14:38:34.500Z,100.00
2023-05-22T14:41:04.636Z,100.00
2023-05-22T14:43:37.171Z,100.00
2023-05-22T14:46:06.285Z,100.00
2023-05-22T14:48:35.193Z,100.00
2023-05-22T14:51:04.250Z,100.00
2023-05-22T14:53:33.220Z,100.00
2023-05-22T14:56:02.206Z,100.00
2023-05-22T14:58:31.489Z,100.00
2023-05-22T15:01:02.059Z,100.00
2023-05-22T15:03:31.496Z,100.00
2023-05-22T15:06:00.447Z,100.00
2023-05-22T15:08:29.678Z,100.00
2023-05-22T15:10:58.675Z,100.00
2023-05-22T15:13:27.686Z,100.00
2023-05-22T15:15:58.092Z,100.00
2023-05-22T15:18:28.497Z,100.00
2023-05-22T15:20:57.557Z,100.00
2023-05-22T15:23:26.961Z,100.00
2023-05-22T15:25:55.880Z,100.00
2023-05-22T15:28:24.803Z,100.00
2023-05-22T15:30:53.727Z,100.00
2023-05-22T15:33:22.757Z,100.00
2023-05-22T15:35:53.209Z,98.11
2023-05-22T15:38:22.052Z,100.00
2023-05-22T15:40:50.921Z,100.00
2023-05-22T15:43:20.189Z,100.00
2023-05-22T15:45:50.112Z,100.00
2023-05-22T15:48:19.210Z,100.00
2023-05-22T15:50:48.122Z,100.00
2023-05-22T15:53:18.900Z,100.00
2023-05-22T15:55:48.280Z,100.00
2023-05-22T15:58:17.518Z,100.00
2023-05-22T16:00:46.433Z,100.00
2023-05-22T16:03:15.723Z,100.00
2023-05-22T16:05:46.962Z,100.00
2023-05-22T16:08:16.884Z,100.00
2023-05-22T16:10:47.320Z,100.00
2023-05-22T16:13:16.297Z,100.00
2023-05-22T16:15:45.321Z,100.00
2023-05-22T16:18:14.386Z,100.00
2023-05-22T16:20:43.318Z,100.00
2023-05-22T16:23:12.179Z,100.00
2023-05-22T16:25:41.216Z,100.00
2023-05-22T16:28:12.530Z,100.00
2023-05-22T16:30:41.445Z,100.00
2023-05-22T16:33:10.389Z,100.00
2023-05-22T16:35:39.631Z,100.00
2023-05-22T16:38:12.143Z,100.00
2023-05-22T16:40:41.437Z,100.00
2023-05-22T16:43:13.839Z,100.00
2023-05-22T16:45:46.637Z,100.00
2023-05-22T16:48:15.891Z,100.00
2023-05-22T16:50:46.744Z,100.00
2023-05-22T16:53:17.425Z,100.00
2023-05-22T16:55:46.350Z,100.00
2023-05-22T16:58:16.547Z,100.00
2023-05-22T17:00:45.832Z,100.00
2023-05-22T17:03:15.006Z,100.00
2023-05-22T17:05:44.177Z,100.00
2023-05-22T17:08:13.067Z,100.00
2023-05-22T17:10:42.331Z,100.00
2023-05-22T17:13:12.737Z,100.00
2023-05-22T17:15:43.020Z,100.00
2023-05-22T17:18:11.979Z,100.00
2023-05-22T17:20:41.478Z,100.00
2023-05-22T17:23:10.379Z,100.00
2023-05-22T17:25:39.526Z,100.00
2023-05-22T17:28:08.946Z,100.00
2023-05-22T17:30:37.847Z,100.00
2023-05-22T17:33:08.283Z,100.00
2023-05-22T17:35:37.284Z,100.00
2023-05-22T17:38:07.853Z,100.00
2023-05-22T17:40:44.894Z,100.00
2023-05-22T17:43:15.138Z,100.00
2023-05-22T17:45:44.626Z,100.00
2023-05-22T17:48:16.044Z,100.00
2023-05-22T18:10:15.731Z,100.00
2023-05-22T18:12:44.749Z,100.00
2023-05-22T18:15:13.626Z,100.00
2023-05-22T18:17:42.611Z,100.00
2023-05-22T18:20:12.942Z,100.00
2023-05-22T18:22:41.911Z,100.00
2023-05-22T18:25:11.303Z,100.00
2023-05-22T18:27:41.610Z,100.00
2023-05-22T18:30:11.232Z,100.00
2023-05-22T18:32:40.468Z,100.00
2023-05-22T18:35:11.036Z,100.00
2023-05-22T18:37:40.020Z,100.00
2023-05-22T18:40:10.958Z,100.00
2023-05-22T18:42:41.295Z,100.00
2023-05-22T18:45:11.978Z,100.00
2023-05-22T18:47:41.441Z,100.00
2023-05-22T18:50:11.107Z,100.00
2023-05-22T18:52:40.151Z,100.00
2023-05-22T18:55:09.803Z,100.00
2023-05-22T18:57:38.772Z,100.00
2023-05-22T19:00:10.493Z,100.00
2023-05-22T19:02:39.418Z,100.00
2023-05-22T19:05:08.993Z,100.00
2023-05-22T19:07:37.918Z,100.00
2023-05-22T19:10:08.437Z,100.00
2023-05-22T19:12:37.380Z,100.00
2023-05-22T19:15:07.413Z,100.00
2023-05-22T19:17:37.690Z,100.00
2023-05-22T19:20:07.750Z,100.00
2023-05-22T19:22:36.723Z,100.00
2023-05-22T19:25:06.393Z,100.00
2023-05-22T19:27:36.735Z,100.00
2023-05-22T19:30:08.809Z,100.00
2023-05-22T19:32:39.133Z,100.00
2023-05-22T19:35:09.024Z,100.00
2023-05-22T19:37:38.211Z,100.00
2023-05-22T19:40:09.740Z,100.00
2023-05-22T19:42:39.437Z,100.00
2023-05-22T19:45:09.503Z,100.00
2023-05-22T19:47:39.744Z,100.00
2023-05-22T19:50:09.540Z,100.00
2023-05-22T19:52:38.424Z,100.00
2023-05-22T19:55:07.744Z,100.00
2023-05-22T19:57:36.648Z,100.00
2023-05-22T20:00:07.990Z,100.00
2023-05-22T20:02:37.009Z,100.00
2023-05-22T20:05:09.535Z,100.00
2023-05-22T20:07:38.514Z,100.00
2023-05-22T20:10:08.616Z,100.00
2023-05-22T20:12:37.526Z,100.00
2023-05-22T20:15:07.647Z,100.00
2023-05-22T20:17:37.433Z,100.00
2023-05-22T20:20:09.660Z,100.00
2023-05-22T20:22:38.531Z,100.00
2023-05-22T20:25:08.770Z,100.00
2023-05-22T20:27:37.804Z,100.00
2023-05-22T20:30:11.385Z,100.00
2023-05-22T20:32:42.559Z,100.00
2023-05-22T20:35:13.880Z,100.00
2023-05-22T20:37:42.793Z,100.00
2023-05-22T20:40:13.104Z,100.00
2023-05-22T20:42:43.032Z,100.00
2023-05-22T20:45:14.552Z,100.00
2023-05-22T20:47:44.563Z,100.00
2023-05-22T20:50:15.702Z,100.00
2023-05-22T20:52:45.975Z,100.00
2023-05-22T20:55:15.027Z,100.00
2023-05-22T20:57:43.894Z,100.00
2023-05-22T21:00:17.876Z,100.00
2023-05-22T21:02:46.792Z,100.00
2023-05-22T21:05:17.137Z,100.00
2023-05-22T21:07:46.003Z,100.00
2023-05-22T21:10:14.832Z,100.00
2023-05-22T21:12:43.797Z,100.00
2023-05-22T21:15:13.033Z,100.00
2023-05-22T21:17:41.930Z,100.00
2023-05-22T21:20:11.729Z,100.00
2023-05-22T21:22:41.982Z,100.00
2023-05-22T21:25:11.280Z,100.00
2023-05-22T21:27:40.315Z,100.00
2023-05-22T21:30:12.184Z,100.00
2023-05-22T21:32:41.040Z,100.00
2023-05-22T21:35:11.046Z,100.00
2023-05-22T21:37:41.378Z,100.00
2023-05-22T21:40:10.823Z,100.00
2023-05-22T21:42:46.397Z,100.00
2023-05-22T21:45:16.110Z,100.00
2023-05-22T21:47:45.040Z,100.00
2023-05-22T21:50:14.034Z,100.00
2023-05-22T21:52:44.323Z,100.00
2023-05-22T21:55:13.217Z,100.00
2023-05-22T21:57:42.244Z,100.00
2023-05-22T22:00:12.502Z,100.00
2023-05-22T22:02:43.282Z,100.00
2023-05-22T22:05:12.751Z,100.00
2023-05-22T22:07:41.616Z,100.00
2023-05-22T22:10:12.596Z,100.00
2023-05-22T22:12:41.514Z,100.00
2023-05-22T22:15:11.367Z,100.00
2023-05-22T22:17:40.683Z,100.00
2023-05-22T22:20:11.201Z,100.00
2023-05-22T22:22:41.313Z,100.00
2023-05-22T22:25:12.157Z,100.00
2023-05-22T22:27:41.190Z,100.00
2023-05-22T22:30:11.111Z,100.00
2023-05-22T22:32:40.132Z,100.00
2023-05-22T22:35:09.857Z,100.00
2023-05-22T22:37:38.744Z,100.00
2023-05-22T22:40:09.280Z,100.00
2023-05-22T22:42:39.584Z,100.00
2023-05-22T22:45:09.801Z,100.00
2023-05-22T22:47:38.747Z,100.00
2023-05-22T22:50:10.217Z,100.00
2023-05-22T22:52:39.068Z,100.00
2023-05-22T22:55:09.210Z,100.00
2023-05-22T22:57:39.801Z,100.00
2023-05-22T23:00:09.809Z,100.00
2023-05-22T23:02:38.951Z,100.00
2023-05-22T23:05:09.028Z,100.00
2023-05-22T23:07:38.107Z,100.00
2023-05-22T23:10:08.504Z,100.00
2023-05-22T23:12:37.378Z,100.00
2023-05-22T23:15:11.188Z,100.00
2023-05-22T23:17:40.249Z,100.00
2023-05-22T23:20:10.058Z,100.00
2023-05-22T23:22:38.890Z,100.00
2023-05-22T23:25:08.855Z,100.00
2023-05-22T23:27:37.859Z,100.00
2023-05-22T23:30:09.400Z,100.00
2023-05-22T23:32:38.427Z,100.00
2023-05-22T23:35:09.696Z,100.00
2023-05-22T23:37:38.666Z,100.00
2023-05-22T23:40:09.174Z,100.00
2023-05-22T23:42:38.096Z,100.00
2023-05-22T23:45:09.368Z,100.00
2023-05-22T23:47:38.357Z,100.00
2023-05-22T23:50:08.452Z,100.00
2023-05-22T23:52:37.600Z,100.00
2023-05-22T23:55:07.801Z,100.00
2023-05-22T23:57:36.864Z,100.00
